Time;durP1;ratioP1;P1;durP2;ratioP2;P2;SDS_P1;SDS_P2;PMS_P1;PMS_P2;Temp;Humidity;BMP_temperature;BMP_pressure;BME280_temperature;BME280_humidity;BME280_pressure;Samples;Min_cycle;Max_cycle;Signal;HPM_P1;HPM_P2
2022/07/24 00:00:24;;;;;;;5.85;5.25;;;20.30;99.90;;;20.37;85.78;97557.50;5021225;28;20060;-42
2022/07/24 00:02:50;;;;;;;5.82;5.25;;;20.30;99.90;;;20.34;85.49;97541.66;5021541;28;20737;-42
2022/07/24 00:05:16;;;;;;;7.00;5.05;;;20.40;99.90;;;20.37;85.08;97554.00;5021928;28;20277;-42
2022/07/24 00:07:43;;;;;;;7.18;5.90;;;20.30;99.90;;;20.41;83.92;97556.31;5023196;28;20076;-42
2022/07/24 00:10:09;;;;;;;7.05;5.68;;;20.40;99.90;;;20.45;83.38;97558.75;5024696;28;20589;-42
2022/07/24 00:12:35;;;;;;;7.65;5.00;;;20.40;99.90;;;20.45;82.73;97554.25;5022899;28;20116;-42
2022/07/24 00:15:01;;;;;;;6.80;5.32;;;20.50;99.90;;;20.48;82.83;97554.03;5021931;28;20111;-42
2022/07/24 00:17:27;;;;;;;5.80;4.50;;;20.40;99.90;;;20.48;82.71;97559.38;5020263;28;20041;-43
2022/07/24 00:19:52;;;;;;;5.43;4.50;;;20.40;99.90;;;20.44;82.58;97554.38;5023041;28;20464;-42
2022/07/24 00:22:18;;;;;;;6.93;5.28;;;20.40;99.90;;;20.48;82.39;97550.50;5018456;28;20033;-43
2022/07/24 00:24:44;;;;;;;6.45;5.03;;;20.40;99.90;;;20.45;82.32;97556.09;5023528;28;20021;-42
2022/07/24 00:27:10;;;;;;;5.20;4.70;;;20.40;99.90;;;20.45;82.53;97551.56;5022155;28;20307;-43
2022/07/24 00:29:35;;;;;;;6.72;5.10;;;20.40;99.90;;;20.46;82.12;97553.28;5018617;28;20048;-42
2022/07/24 00:32:01;;;;;;;6.45;5.55;;;20.40;99.90;;;20.46;82.02;97549.75;5021941;28;20040;-42
2022/07/24 00:34:27;;;;;;;6.32;5.63;;;20.40;99.90;;;20.50;82.05;97551.25;5022716;28;20037;-42
2022/07/24 00:36:52;;;;;;;6.50;5.18;;;20.40;99.90;;;20.56;81.41;97540.06;5019203;28;20044;-43
2022/07/24 00:39:18;;;;;;;7.07;6.00;;;20.50;99.90;;;20.62;81.35;97544.13;5026126;28;21240;-43
2022/07/24 00:41:44;;;;;;;7.60;5.80;;;20.60;99.90;;;20.69;80.71;97543.56;5016431;28;20116;-42
2022/07/24 00:44:14;;;;;;;6.70;5.65;;;20.70;99.90;;;20.77;80.61;97551.84;5009997;28;20408;-44
2022/07/24 00:46:42;;;;;;;6.65;5.45;;;20.80;99.90;;;20.80;81.02;97540.06;5019740;28;20036;-42
2022/07/24 00:49:14;;;;;;;7.55;5.80;;;20.80;99.90;;;20.78;81.12;97545.53;5020696;28;20026;-42
2022/07/24 00:51:41;;;;;;;;;;;20.80;99.90;;;20.74;81.18;97551.25;5020450;28;20040;-43
2022/07/24 00:54:09;;;;;;;6.25;5.22;;;20.70;99.90;;;20.69;81.71;97548.91;5022846;28;19931;-43
2022/07/24 00:56:35;;;;;;;6.18;5.43;;;20.70;99.90;;;20.65;81.45;97554.63;4990596;28;20040;-45
2022/07/24 00:59:01;;;;;;;6.03;5.25;;;20.60;99.90;;;20.63;81.94;97557.41;5020701;28;20025;-43
2022/07/24 01:01:27;;;;;;;6.68;5.47;;;20.60;99.90;;;20.62;81.75;97554.84;5017192;28;20532;-43
2022/07/24 01:03:53;;;;;;;7.35;5.90;;;20.60;99.90;;;20.63;81.43;97557.41;5020381;28;20382;-44
2022/07/24 01:06:19;;;;;;;6.45;5.70;;;20.60;99.90;;;20.64;81.56;97553.78;5018704;28;20037;-44
2022/07/24 01:08:46;;;;;;;5.70;5.10;;;20.60;99.90;;;20.66;81.00;97543.78;5022275;28;20051;-42
2022/07/24 01:11:12;;;;;;;7.35;5.28;;;20.70;99.90;;;20.66;80.69;97543.78;5020730;28;20040;-44
2022/07/24 01:13:39;;;;;;;5.80;5.05;;;20.60;99.90;;;20.67;80.94;97545.47;5018830;28;20029;-43
2022/07/24 01:16:07;;;;;;;6.80;5.47;;;20.60;99.90;;;20.64;81.06;97544.84;5022566;28;20194;-43
2022/07/24 01:18:33;;;;;;;5.43;4.78;;;20.60;99.90;;;20.58;81.39;97552.38;5020952;28;20468;-44
2022/07/24 01:20:59;;;;;;;5.93;5.22;;;20.50;99.90;;;20.52;82.18;97552.81;5024034;28;20079;-43
2022/07/24 01:23:24;;;;;;;5.90;4.97;;;20.50;99.90;;;20.48;82.61;97545.16;5018105;28;20478;-44
2022/07/24 01:25:51;;;;;;;5.60;4.78;;;20.50;99.90;;;20.45;82.51;97543.53;5021487;28;20111;-43
2022/07/24 01:28:17;;;;;;;5.05;4.65;;;20.40;99.90;;;20.44;82.82;97543.66;5022907;28;20061;-43
2022/07/24 01:30:43;;;;;;;6.82;5.45;;;20.40;99.90;;;20.43;82.14;97550.00;5022074;28;20060;-45
2022/07/24 01:33:09;;;;;;;6.45;5.47;;;20.40;99.90;;;20.37;83.06;97540.59;5019626;28;20061;-43
2022/07/24 01:35:35;;;;;;;6.82;5.45;;;20.40;99.90;;;20.31;83.82;97549.91;5018715;28;20495;-42
2022/07/24 01:38:00;;;;;;;6.65;5.32;;;20.30;99.90;;;20.13;84.30;97537.91;5007346;28;20032;-43
2022/07/24 01:40:26;;;;;;;6.82;5.45;;;20.20;99.90;;;20.14;84.68;97547.66;5021645;28;20034;-43
2022/07/24 01:42:52;;;;;;;5.88;5.20;;;20.10;99.90;;;19.98;85.35;97535.38;5020055;28;20037;-43
2022/07/24 01:45:18;;;;;;;5.78;5.22;;;20.10;99.90;;;19.97;86.30;97548.88;5021730;28;20033;-42
2022/07/24 01:47:45;;;;;;;6.35;5.22;;;20.00;99.90;;;19.88;87.03;97541.50;5020791;28;20056;-42
2022/07/24 01:50:12;;;;;;;5.47;4.95;;;19.90;99.90;;;19.80;87.30;97544.75;5022802;28;20492;-43
2022/07/24 01:52:38;;;;;;;5.40;4.90;;;19.80;99.90;;;19.73;87.44;97546.13;5021173;28;20032;-43
2022/07/24 01:55:06;;;;;;;6.20;5.07;;;19.70;99.90;;;19.63;88.22;97544.13;5019794;28;20013;-42
2022/07/24 01:57:32;;;;;;;6.28;5.35;;;19.70;99.90;;;19.58;88.80;97537.38;5021414;28;20026;-42
2022/07/24 01:59:59;;;;;;;5.95;5.35;;;19.60;99.90;;;19.55;88.75;97546.47;5020944;28;20029;-42
2022/07/24 02:02:26;;;;;;;5.07;4.57;;;19.60;99.90;;;19.50;88.94;97545.94;5021617;28;20030;-42
2022/07/24 02:04:52;;;;;;;6.75;5.10;;;19.50;99.90;;;19.42;89.51;97541.13;5018786;28;20307;-42
2022/07/24 02:07:18;;;;;;;6.57;5.78;;;19.40;99.90;;;19.36;89.98;97544.25;5021868;28;20064;-42
2022/07/24 02:09:44;;;;;;;6.10;5.50;;;19.40;99.90;;;19.32;90.83;97539.22;5020291;28;20064;-42
2022/07/24 02:12:10;;;;;;;6.50;5.60;;;19.30;99.90;;;19.26;91.40;97537.84;5027870;28;20030;-41
2022/07/24 02:14:36;;;;;;;7.43;5.75;;;19.20;99.90;;;19.20;92.46;97531.09;5023126;28;20041;-42
2022/07/24 02:17:02;;;;;;;8.13;6.15;;;19.20;99.90;;;19.16;93.74;97532.25;5020167;28;20056;-42
2022/07/24 02:19:27;;;;;;;8.70;6.60;;;19.20;99.90;;;19.14;95.28;97530.66;5024347;28;20030;-42
2022/07/24 02:21:53;;;;;;;8.75;7.22;;;19.10;99.90;;;19.10;96.39;97530.03;5025257;28;20087;-42
2022/07/24 02:24:19;;;;;;;8.93;7.50;;;19.10;99.90;;;19.07;97.52;97528.41;5024694;28;20083;-42
2022/07/24 02:26:44;;;;;;;8.95;7.18;;;19.10;99.90;;;19.06;99.18;97528.53;5026141;28;20389;-41
2022/07/24 02:29:11;;;;;;;9.43;7.68;;;19.10;99.90;;;19.03;100.00;97529.59;5026053;28;20030;-41
2022/07/24 02:31:36;;;;;;;9.07;8.00;;;19.00;99.90;;;19.02;100.00;97543.06;5024332;28;20045;-42
2022/07/24 02:34:02;;;;;;;8.85;7.43;;;19.00;99.90;;;19.03;100.00;97540.28;5025162;28;20025;-43
2022/07/24 02:36:28;;;;;;;11.23;7.53;;;19.00;99.90;;;19.02;100.00;97535.91;5023868;28;20292;-42
2022/07/24 02:38:53;;;;;;;8.77;7.88;;;19.00;99.90;;;18.93;100.00;97533.84;5026297;28;20056;-45
2022/07/24 02:41:19;;;;;;;9.73;8.32;;;19.00;99.90;;;18.82;100.00;97521.22;5022690;28;20053;-41
2022/07/24 02:43:45;;;;;;;10.88;9.13;;;18.90;99.90;;;18.88;100.00;97544.03;5023362;28;20148;-43
2022/07/24 02:46:11;;;;;;;10.02;8.48;;;18.90;99.90;;;18.84;100.00;97546.06;5023973;28;20496;-41
2022/07/24 02:48:36;;;;;;;10.20;8.82;;;18.80;99.90;;;18.80;100.00;97535.63;5023282;28;20040;-43
2022/07/24 02:51:03;;;;;;;9.80;8.80;;;18.80;99.90;;;18.76;100.00;97534.13;5020435;28;20033;-42
2022/07/24 02:53:29;;;;;;;12.70;9.55;;;18.80;99.90;;;18.71;100.00;97529.09;5022522;28;20025;-42
2022/07/24 02:55:54;;;;;;;10.77;9.55;;;18.80;99.90;;;18.70;100.00;97533.59;5019951;28;20029;-42
2022/07/24 02:58:20;;;;;;;12.00;9.30;;;18.70;99.90;;;18.69;100.00;97537.22;5026451;28;20040;-42
2022/07/24 03:00:46;;;;;;;12.63;9.63;;;18.70;99.90;;;18.66;100.00;97532.09;5020816;28;20118;-44
2022/07/24 03:03:11;;;;;;;10.43;8.88;;;18.70;99.90;;;18.68;100.00;97537.31;5023045;28;20060;-43
2022/07/24 03:05:37;;;;;;;12.55;9.77;;;18.70;99.90;;;18.64;100.00;97525.13;5021249;28;20119;-42
2022/07/24 03:08:04;;;;;;;10.70;9.60;;;18.70;99.90;;;18.63;100.00;97531.44;5026564;28;20033;-43
2022/07/24 03:10:29;;;;;;;12.35;10.32;;;18.60;99.90;;;18.62;100.00;97543.06;5024637;28;20026;-42
2022/07/24 03:12:55;;;;;;;11.65;9.63;;;18.60;99.90;;;18.58;100.00;97533.56;5022729;28;20053;-42
2022/07/24 03:15:21;;;;;;;11.13;9.60;;;18.60;99.90;;;18.58;100.00;97541.56;5023743;28;20038;-43
2022/07/24 03:17:56;;;;;;;11.95;9.68;;;18.60;99.90;;;18.53;100.00;97536.53;5023040;28;20067;-42
2022/07/24 03:20:25;;;;;;;11.27;9.35;;;18.60;99.90;;;18.54;100.00;97540.06;5021087;28;20306;-44
2022/07/24 03:22:51;;;;;;;9.50;8.05;;;18.60;99.90;;;18.50;100.00;97534.94;5022739;28;20482;-41
2022/07/24 03:25:18;;;;;;;9.38;8.38;;;18.50;99.90;;;18.45;100.00;97539.72;5023145;28;20096;-42
2022/07/24 03:27:45;;;;;;;11.23;8.77;;;18.50;99.90;;;18.41;100.00;97545.34;5020892;28;20037;-43
2022/07/24 03:30:11;;;;;;;11.85;9.95;;;18.50;99.90;;;18.34;100.00;97546.72;5023212;28;20017;-42
2022/07/24 03:32:37;;;;;;;10.48;9.38;;;18.40;99.90;;;18.32;100.00;97544.16;5021544;28;20029;-43
2022/07/24 03:35:04;;;;;;;12.10;9.85;;;18.40;99.90;;;18.29;100.00;97539.88;5021600;28;20021;-42
2022/07/24 03:37:29;;;;;;;12.02;10.13;;;18.40;99.90;;;18.30;100.00;97548.75;5026189;28;20108;-42
2022/07/24 03:39:55;;;;;;;11.93;10.27;;;18.40;99.90;;;18.28;100.00;97546.16;5024042;28;20440;-42
2022/07/24 03:42:21;;;;;;;13.10;10.07;;;18.30;99.90;;;18.27;100.00;97539.13;5016968;28;20033;-43
2022/07/24 03:44:47;;;;;;;15.00;10.25;;;18.30;99.90;;;18.27;100.00;97549.81;5021034;28;20397;-41
2022/07/24 03:47:12;;;;;;;13.70;10.40;;;18.30;99.90;;;18.24;100.00;97535.81;5025532;28;20034;-42
2022/07/24 03:49:38;;;;;;;12.55;11.07;;;18.30;99.90;;;18.24;100.00;97541.16;5021758;28;20096;-42
2022/07/24 03:52:04;;;;;;;12.25;10.02;;;18.30;99.90;;;18.24;100.00;97549.16;5017583;28;20117;-42
2022/07/24 03:54:30;;;;;;;11.20;9.85;;;18.30;99.90;;;18.12;100.00;97530.31;5023655;28;20045;-42
2022/07/24 03:56:56;;;;;;;11.52;10.32;;;18.30;99.90;;;18.23;100.00;97548.31;5022352;28;20037;-41
2022/07/24 03:59:21;;;;;;;13.45;10.00;;;18.30;99.90;;;18.24;100.00;97546.50;5022910;28;20448;-42
2022/07/24 04:01:47;;;;;;;13.15;10.25;;;18.30;99.90;;;18.21;100.00;97544.00;5025637;28;20116;-42
2022/07/24 04:04:13;;;;;;;13.00;9.60;;;18.30;99.90;;;18.26;100.00;97553.41;5019106;28;20030;-41
2022/07/24 04:06:40;;;;;;;10.40;8.95;;;18.30;99.90;;;18.27;100.00;97547.13;5023000;28;20029;-41
2022/07/24 04:09:06;;;;;;;12.90;10.25;;;18.30;99.90;;;18.21;100.00;97538.66;5021748;28;21176;-41
2022/07/24 04:11:32;;;;;;;10.55;9.10;;;18.30;99.90;;;18.26;100.00;97549.91;5020609;28;20029;-42
2022/07/24 04:13:58;;;;;;;11.43;9.57;;;18.30;99.90;;;18.11;100.00;97523.25;5024860;28;20532;-42
2022/07/24 04:16:24;;;;;;;11.38;9.23;;;18.40;99.90;;;18.35;100.00;97567.97;5022265;28;20041;-41
2022/07/24 04:18:50;;;;;;;11.80;9.38;;;18.40;99.90;;;18.28;100.00;97553.31;5022531;28;20033;-42
2022/07/24 04:21:16;;;;;;;10.57;9.23;;;18.40;99.90;;;18.27;100.00;97549.81;5021938;28;20033;-42
2022/07/24 04:23:41;;;;;;;12.80;9.55;;;18.50;99.90;;;18.42;100.00;97571.97;5023304;28;20033;-43
2022/07/24 04:26:07;;;;;;;10.20;9.10;;;18.40;99.90;;;18.43;100.00;97565.69;5023168;28;20039;-41
2022/07/24 04:28:33;;;;;;;13.23;9.65;;;18.50;99.90;;;18.50;100.00;97571.44;5020551;28;20034;-43
2022/07/24 04:30:59;;;;;;;10.43;8.55;;;18.50;99.90;;;18.54;100.00;97572.97;5021196;28;20499;-43
2022/07/24 04:33:25;;;;;;;11.30;9.57;;;18.60;99.90;;;18.52;100.00;97561.53;5019214;28;20034;-43
2022/07/24 04:35:51;;;;;;;10.07;8.50;;;18.60;99.90;;;18.61;100.00;97579.63;5024617;28;20033;-42
2022/07/24 04:38:16;;;;;;;10.35;9.25;;;18.70;99.90;;;18.65;100.00;97581.13;5018951;28;20400;-41
2022/07/24 04:40:42;;;;;;;9.90;8.90;;;18.70;99.90;;;18.74;100.00;97574.31;5023398;28;20275;-42
2022/07/24 04:43:08;;;;;;;10.18;8.95;;;18.70;99.90;;;18.75;100.00;97564.47;5020446;28;20029;-42
2022/07/24 04:45:34;;;;;;;11.13;8.95;;;18.80;99.90;;;18.73;100.00;97547.69;5023420;28;20038;-41
2022/07/24 04:48:00;;;;;;;9.85;8.50;;;18.90;99.90;;;18.91;100.00;97575.00;5020258;28;20381;-41
2022/07/24 04:50:25;;;;;;;11.00;8.73;;;19.00;99.90;;;18.99;100.00;97575.34;5022303;28;20033;-42
2022/07/24 04:52:51;;;;;;;10.88;8.48;;;19.00;99.90;;;19.03;100.00;97579.53;5021750;28;20041;-41
2022/07/24 04:55:17;;;;;;;9.80;8.73;;;19.10;99.90;;;18.96;100.00;97557.69;5005468;28;20509;-41
2022/07/24 04:57:42;;;;;;;9.73;8.63;;;19.10;99.90;;;19.12;100.00;97584.22;5022294;28;20030;-43
2022/07/24 05:00:12;;;;;;;11.63;9.50;;;19.10;99.90;;;19.19;100.00;97590.03;5021845;28;20052;-42
2022/07/24 05:02:38;;;;;;;10.82;8.93;;;19.20;99.90;;;19.24;100.00;97575.38;5018847;28;20037;-42
2022/07/24 05:05:04;;;;;;;9.85;8.43;;;19.30;99.90;;;19.33;100.00;97587.25;5021822;28;20405;-42
2022/07/24 05:07:30;;;;;;;11.90;8.88;;;19.30;99.90;;;19.40;100.00;97587.69;5019499;28;20371;-42
2022/07/24 05:09:57;;;;;;;13.20;9.93;;;19.40;99.90;;;19.50;100.00;97588.72;5021181;28;20328;-41
2022/07/24 05:12:23;;;;;;;10.38;9.25;;;19.50;99.90;;;19.54;100.00;97587.56;5020975;28;20481;-41
2022/07/24 05:14:49;;;;;;;9.07;8.13;;;19.60;99.90;;;19.60;100.00;97599.66;5022934;28;20033;-41
2022/07/24 05:17:14;;;;;;;11.57;9.25;;;19.70;99.90;;;19.67;100.00;97594.72;5021598;28;20087;-41
2022/07/24 05:19:40;;;;;;;11.02;8.50;;;19.70;99.90;;;19.76;100.00;97604.81;5021456;28;20393;-42
2022/07/24 05:22:06;;;;;;;9.23;8.27;;;19.80;99.90;;;19.88;100.00;97605.75;5018370;28;20037;-42
2022/07/24 05:27:08;;;;;;;10.35;8.10;;;20.00;99.90;;;20.12;100.00;97595.09;4997710;28;20060;-38
2022/07/24 05:29:34;;;;;;;9.40;8.32;;;20.10;99.90;;;20.27;100.00;97604.69;5003891;28;20033;-38
2022/07/24 05:32:00;;;;;;;10.10;8.48;;;20.30;99.90;;;20.44;100.00;97599.91;4999752;28;20479;-38
2022/07/24 05:34:25;;;;;;;11.27;8.88;;;20.40;99.90;;;20.57;100.00;97598.03;4991082;28;20030;-39
2022/07/24 05:36:51;;;;;;;10.88;9.02;;;20.60;99.90;;;20.70;100.00;97598.00;5001695;28;20453;-38
2022/07/24 05:39:17;;;;;;;11.55;8.55;;;20.70;99.90;;;20.85;100.00;97595.97;5004184;28;20025;-38
2022/07/24 05:41:42;;;;;;;10.07;8.88;;;20.80;99.90;;;21.12;99.94;97593.91;4998221;28;20430;-39
2022/07/24 05:44:08;;;;;;;10.45;9.27;;;21.00;99.90;;;21.59;97.76;97591.19;5000349;28;20505;-39
2022/07/24 05:46:34;;;;;;;10.18;9.00;;;21.30;99.90;;;22.10;93.51;97597.88;4998718;28;20026;-39
2022/07/24 05:49:00;;;;;;;11.50;9.43;;;21.60;99.90;;;22.59;89.34;97584.97;5004133;28;20034;-38
2022/07/24 05:51:26;;;;;;;12.60;9.43;;;21.90;99.90;;;23.11;83.57;97590.53;5001447;28;20165;-39
2022/07/24 05:53:52;;;;;;;8.73;7.82;;;22.30;99.90;;;23.37;81.92;97589.16;5003566;28;20043;-39
2022/07/24 05:56:18;;;;;;;10.63;9.02;;;22.60;99.90;;;23.53;79.79;97596.75;5003168;28;20030;-38
2022/07/24 05:58:43;;;;;;;10.82;9.73;;;22.80;99.90;;;23.53;77.76;97588.69;5000916;28;20121;-39
2022/07/24 06:01:09;;;;;;;10.75;8.18;;;23.00;99.90;;;23.51;77.39;97596.03;5002345;28;20116;-39
2022/07/24 06:03:35;;;;;;;12.23;7.95;;;23.00;99.90;;;23.47;76.95;97596.44;5001881;28;20472;-39
2022/07/24 06:06:01;;;;;;;9.15;7.63;;;23.00;99.90;;;23.42;75.85;97591.47;4999337;28;20034;-39
2022/07/24 06:08:26;;;;;;;9.25;7.82;;;23.10;99.90;;;23.34;75.15;97600.16;5001040;28;20056;-39
2022/07/24 06:10:52;;;;;;;9.10;7.32;;;23.00;99.90;;;23.33;75.02;97597.59;5000784;28;20034;-39
2022/07/24 06:13:18;;;;;;;8.25;7.20;;;23.10;99.90;;;23.29;74.96;97588.09;5002764;28;20056;-38
2022/07/24 06:15:43;;;;;;;8.80;7.57;;;23.10;99.90;;;23.34;75.21;97592.09;5000017;28;20202;-39
2022/07/24 06:18:09;;;;;;;8.63;7.72;;;23.10;99.90;;;23.33;73.60;97593.09;5002805;28;20026;-39
2022/07/24 06:20:35;;;;;;;9.93;7.90;;;23.10;99.90;;;23.40;73.65;97602.34;5002567;28;20046;-39
2022/07/24 06:23:00;;;;;;;8.30;7.43;;;23.20;99.90;;;23.42;71.73;97597.69;5002048;28;20378;-39
2022/07/24 06:25:26;;;;;;;7.70;6.10;;;23.20;99.90;;;23.46;69.70;97598.28;4997455;28;20038;-39
2022/07/24 06:27:53;;;;;;;7.30;6.38;;;23.30;99.90;;;23.50;68.86;97606.94;5003170;28;20418;-39
2022/07/24 06:30:25;;;;;;;7.82;6.90;;;23.30;99.90;;;23.51;69.28;97598.72;5002382;28;20026;-39
2022/07/24 06:32:54;;;;;;;9.70;7.03;;;23.40;99.90;;;23.59;69.75;97609.66;4998772;28;20026;-39
2022/07/24 06:35:20;;;;;;;10.20;6.85;;;23.50;99.90;;;23.64;67.61;97611.97;4996285;28;20046;-39
2022/07/24 06:37:46;;;;;;;7.47;6.38;;;23.50;99.90;;;23.66;67.55;97601.91;5000551;28;20761;-38
2022/07/24 06:40:12;;;;;;;8.30;6.72;;;23.50;99.90;;;23.73;67.82;97595.00;5000264;28;20117;-39
2022/07/24 06:42:38;;;;;;;8.45;7.38;;;23.60;99.90;;;23.85;66.15;97600.31;4997470;28;20117;-39
2022/07/24 06:45:05;;;;;;;8.23;7.35;;;23.70;99.90;;;23.93;65.99;97603.22;4986477;28;20022;-39
2022/07/24 06:47:30;;;;;;;7.50;6.40;;;23.80;99.90;;;24.00;65.62;97599.84;5001136;28;20040;-41
2022/07/24 06:49:56;;;;;;;7.80;6.97;;;23.90;99.90;;;24.10;65.39;97605.28;5000963;28;20049;-39
2022/07/24 06:52:22;;;;;;;8.90;7.40;;;24.00;99.90;;;24.12;63.55;97605.97;5000335;28;20061;-39
2022/07/24 06:54:48;;;;;;;7.45;6.75;;;24.00;99.90;;;24.21;64.48;97601.63;5002159;28;20036;-39
2022/07/24 06:57:14;;;;;;;8.45;7.10;;;24.10;99.90;;;24.27;62.97;97603.75;5004473;28;20022;-39
2022/07/24 06:59:40;;;;;;;8.07;7.00;;;24.20;99.90;;;24.42;62.62;97597.97;4999909;28;20068;-39
2022/07/24 07:02:06;;;;;;;8.45;6.93;;;24.30;99.90;;;24.50;62.63;97598.13;5002233;28;20033;-39
2022/07/24 07:04:32;;;;;;;10.00;6.40;;;24.40;99.90;;;24.58;62.21;97599.19;5002667;28;20042;-39
2022/07/24 07:06:57;;;;;;;7.55;6.75;;;24.50;99.90;;;24.64;61.65;97595.06;5007330;28;20029;-39
2022/07/24 07:09:23;;;;;;;11.18;7.80;;;24.50;99.90;;;24.68;63.94;97593.78;5002594;28;20371;-39
2022/07/24 07:11:49;;;;;;;8.93;7.45;;;24.60;99.90;;;24.75;62.43;97594.09;5005126;28;20026;-39
2022/07/24 07:14:14;;;;;;;9.45;7.80;;;24.60;99.90;;;24.69;59.55;97590.09;5006482;28;20022;-39
2022/07/24 07:16:40;;;;;;;9.50;7.40;;;24.60;99.60;;;24.74;59.58;97590.50;4999840;28;20399;-39
2022/07/24 07:19:06;;;;;;;9.00;7.50;;;24.60;99.60;;;24.76;61.71;97602.03;5006761;28;20041;-39
2022/07/24 07:21:32;;;;;;;8.13;7.30;;;24.70;99.90;;;24.88;60.95;97596.50;5005855;28;20468;-39
2022/07/24 07:23:57;;;;;;;6.90;6.25;;;24.80;99.70;;;25.05;60.47;97597.63;5007044;28;20076;-39
2022/07/24 07:26:23;;;;;;;9.23;6.85;;;24.90;99.60;;;25.14;60.20;97596.75;5002743;28;20513;-39
2022/07/24 07:28:49;;;;;;;8.27;6.85;;;25.00;99.50;;;25.24;59.30;97597.63;4997636;28;20041;-39
2022/07/24 07:31:14;;;;;;;8.25;6.45;;;25.10;99.20;;;25.33;57.79;97602.16;4982986;28;20057;-39
2022/07/24 07:33:40;;;;;;;7.38;6.57;;;25.20;98.60;;;25.46;57.33;97606.41;5001353;28;20029;-39
2022/07/24 07:36:08;;;;;;;10.18;7.38;;;25.30;98.10;;;25.51;57.34;97601.41;5002857;28;20029;-39
2022/07/24 07:38:35;;;;;;;7.82;7.03;;;25.40;98.00;;;25.64;57.38;97606.50;4984789;28;20037;-39
2022/07/24 07:41:01;;;;;;;7.70;6.90;;;25.50;98.00;;;25.80;55.82;97598.63;5002286;28;20034;-39
2022/07/24 07:43:26;;;;;;;7.43;6.72;;;25.60;97.50;;;25.85;56.18;97599.03;5003338;28;20041;-39
2022/07/24 07:45:52;;;;;;;7.15;6.45;;;25.60;97.40;;;25.95;56.10;97606.28;5000332;28;20061;-39
2022/07/24 07:48:18;;;;;;;7.70;6.82;;;25.80;97.40;;;26.07;56.17;97603.22;5002807;28;20030;-39
2022/07/24 07:50:43;;;;;;;9.15;7.57;;;25.90;97.30;;;26.12;55.32;97602.78;5004266;28;20026;-39
2022/07/24 07:53:09;;;;;;;9.60;7.57;;;25.90;96.90;;;26.17;55.06;97602.34;4998337;28;20052;-39
2022/07/24 07:55:35;;;;;;;9.27;7.60;;;26.00;96.90;;;26.20;54.96;97607.44;4999405;28;20045;-39
2022/07/24 07:58:01;;;;;;;7.53;6.78;;;26.00;96.50;;;26.26;54.75;97609.56;5002316;28;20030;-39
2022/07/24 08:00:27;;;;;;;8.40;7.47;;;26.00;96.60;;;26.39;54.69;97604.63;5001658;28;20034;-39
2022/07/24 08:02:53;;;;;;;10.65;8.15;;;26.20;96.30;;;26.46;56.04;97610.28;5005809;28;20030;-39
2022/07/24 08:05:18;;;;;;;9.38;7.22;;;26.30;96.70;;;26.57;55.95;97607.38;4998235;28;20056;-39
2022/07/24 08:07:44;;;;;;;11.20;7.70;;;26.30;96.70;;;26.51;56.96;97610.69;5002136;28;20053;-39
2022/07/24 08:10:10;;;;;;;8.85;7.80;;;26.40;96.70;;;26.62;56.37;97610.50;5002814;28;20036;-39
2022/07/24 08:12:36;;;;;;;9.38;7.78;;;26.50;96.80;;;26.61;55.37;97605.25;4999373;28;20030;-39
2022/07/24 08:15:02;;;;;;;8.00;7.20;;;26.50;96.50;;;26.65;55.84;97610.22;4998821;28;20058;-39
2022/07/24 08:17:27;;;;;;;8.27;7.45;;;26.50;96.40;;;26.72;55.08;97610.44;4999145;28;20022;-39
2022/07/24 08:19:53;;;;;;;7.72;6.90;;;26.60;96.20;;;26.89;54.88;97610.59;5002833;28;20026;-39
2022/07/24 08:22:19;;;;;;;8.18;7.30;;;26.70;96.40;;;26.85;52.49;97600.09;5004107;28;20049;-39
2022/07/24 08:24:44;;;;;;;10.73;8.25;;;26.70;94.80;;;26.83;52.25;97602.09;5005257;28;20022;-39
2022/07/24 08:27:10;;;;;;;8.43;7.60;;;26.70;94.60;;;26.90;51.44;97604.19;5001444;28;20045;-39
2022/07/24 08:29:36;;;;;;;9.80;6.95;;;26.70;94.20;;;26.90;50.90;97596.06;5005249;28;20129;-39
2022/07/24 08:32:01;;;;;;;9.88;7.82;;;26.70;94.10;;;26.82;50.37;97594.97;5003611;28;20088;-39
2022/07/24 08:34:27;;;;;;;8.00;7.20;;;26.70;93.30;;;26.80;51.34;97591.59;4993075;28;20129;-39
2022/07/24 08:36:53;;;;;;;11.25;8.07;;;26.70;93.60;;;26.71;51.17;97568.16;4998816;28;20038;-39
2022/07/24 08:39:19;;;;;;;10.02;7.50;;;26.80;93.50;;;26.79;51.22;97594.44;5002565;28;20154;-39
2022/07/24 08:41:44;;;;;;;7.47;6.72;;;26.70;93.40;;;26.83;51.10;97582.31;5000217;28;20362;-39
2022/07/24 08:44:11;;;;;;;8.25;7.03;;;26.70;93.40;;;26.89;52.26;97586.25;5004672;28;20060;-39
2022/07/24 08:46:41;;;;;;;9.07;7.55;;;26.70;93.60;;;26.96;51.69;97587.34;4982293;28;20085;-39
2022/07/24 08:49:12;;;;;;;11.73;7.47;;;26.80;93.60;;;26.99;49.48;97578.88;4973817;28;20413;-39
2022/07/24 08:51:40;;;;;;;7.70;6.88;;;26.90;92.60;;;26.94;49.58;97581.25;5001503;28;20493;-39
2022/07/24 08:54:07;;;;;;;10.25;7.90;;;26.80;92.40;;;26.96;48.35;97584.63;4980317;28;20037;-39
2022/07/24 08:56:36;;;;;;;9.32;7.00;;;26.80;91.80;;;26.97;48.58;97576.38;4984561;28;20030;-39
2022/07/24 08:59:02;;;;;;;8.63;6.97;;;26.80;91.70;;;27.08;49.77;97580.69;4986500;28;20069;-39
2022/07/24 09:01:28;;;;;;;9.63;7.55;;;26.90;92.20;;;27.16;49.40;97586.16;5005363;28;20101;-39
2022/07/24 09:03:54;;;;;;;9.20;6.68;;;27.00;91.90;;;27.31;50.41;97578.31;5001592;28;20075;-39
2022/07/24 09:06:20;;;;;;;7.72;6.93;;;27.20;92.30;;;27.45;48.57;97582.31;5001077;28;20061;-39
2022/07/24 09:09:02;;;;;;;8.57;7.25;;;27.30;91.90;;;27.55;48.28;97580.38;5005119;28;20026;-39
2022/07/24 09:11:30;;;;;;;;;;;27.40;91.50;;;27.70;47.37;97574.38;5003232;28;20607;-39
2022/07/24 09:16:46;;;;;;;11.48;6.80;;;27.70;90.70;;;27.99;46.00;97577.56;5000821;28;20510;-39
2022/07/24 09:19:13;;;;;;;8.65;6.97;;;27.90;89.70;;;28.15;45.75;97575.97;5001927;28;20030;-39
2022/07/24 09:21:41;;;;;;;8.20;7.05;;;28.00;89.20;;;28.42;46.21;97576.72;5000679;28;20018;-39
2022/07/24 09:24:21;;;;;;;12.35;8.00;;;28.30;89.40;;;28.68;44.20;97576.66;5002655;28;20033;-39
2022/07/24 09:26:56;;;;;;;8.57;7.45;;;28.70;86.30;;;28.83;43.45;97577.69;5002448;28;20029;-39
2022/07/24 09:29:24;;;;;;;8.30;7.50;;;29.00;84.50;;;29.07;43.54;97576.88;5003757;28;20544;-39
2022/07/24 09:31:56;;;;;;;9.45;7.50;;;29.30;84.40;;;29.15;42.77;97572.50;4996285;28;20061;-39
2022/07/24 09:34:24;;;;;;;9.18;6.97;;;29.30;82.90;;;29.16;42.70;97582.31;5003324;28;20100;-39
2022/07/24 09:37:05;;;;;;;9.95;7.88;;;29.30;82.50;;;28.87;42.20;97580.91;5001506;28;20107;-39
2022/07/24 09:39:33;;;;;;;10.38;7.85;;;29.10;80.50;;;28.73;42.76;97586.00;5003168;28;20026;-39
2022/07/24 09:42:01;;;;;;;8.95;7.28;;;28.80;81.20;;;28.53;44.02;97566.47;5002021;28;20478;-39
2022/07/24 09:44:29;;;;;;;8.10;7.30;;;28.60;82.30;;;28.52;43.59;97581.00;5000812;28;20105;-39
2022/07/24 09:47:07;;;;;;;10.20;7.28;;;28.40;83.10;;;28.36;44.43;97579.09;5003178;28;20041;-39
2022/07/24 09:49:34;;;;;;;8.55;7.07;;;28.30;83.60;;;28.08;45.07;97574.91;5002861;28;20501;-39
2022/07/24 09:52:14;;;;;;;8.68;7.03;;;28.00;84.30;;;27.80;48.81;97578.66;5004050;28;20494;-39
2022/07/24 09:54:45;;;;;;;8.20;7.40;;;27.80;88.60;;;27.54;46.07;97567.81;5001864;28;20474;-39
2022/07/24 09:57:30;;;;;;;8.65;6.88;;;27.50;85.00;;;27.47;46.09;97574.03;5001077;28;20072;-39
2022/07/24 09:59:57;;;;;;;7.20;6.53;;;27.30;85.80;;;27.44;46.98;97580.66;5001989;28;20042;-39
2022/07/24 10:02:29;;;;;;;7.03;6.32;;;27.20;86.20;;;27.44;46.72;97569.81;5004302;28;20034;-39
2022/07/24 10:04:57;;;;;;;6.97;6.22;;;27.20;87.00;;;27.36;46.70;97573.28;5000751;28;20572;-39
2022/07/24 10:07:24;;;;;;;7.70;6.57;;;27.10;86.90;;;27.28;46.82;97561.56;5004600;28;20060;-39
2022/07/24 10:09:55;;;;;;;8.65;7.13;;;27.10;87.00;;;27.27;46.82;97566.13;5003511;28;20038;-39
2022/07/24 10:12:25;;;;;;;7.60;6.80;;;27.10;86.80;;;27.36;46.54;97570.59;5000463;28;20050;-39
2022/07/24 10:14:58;;;;;;;6.90;6.20;;;27.10;86.60;;;27.45;46.91;97557.94;5003198;28;20072;-39
2022/07/24 10:17:46;;;;;;;7.90;7.10;;;27.20;86.70;;;27.57;46.12;97548.56;5004348;28;20045;-39